Time;durP1;ratioP1;P1;durP2;ratioP2;P2;SDS_P1;SDS_P2;PMS_P1;PMS_P2;Temp;Humidity;BMP_temperature;BMP_pressure;BME280_temperature;BME280_humidity;BME280_pressure;Samples;Min_cycle;Max_cycle;Signal;HPM_P1;HPM_P2
2022/07/21 00:00:20;;;;;;;1.92;1.83;;;;;;;19.66;49.93;64038.94;5021396;28;20198;-76
2022/07/21 00:02:47;;;;;;;1.52;1.52;;;;;;;19.64;49.37;64028.59;5007795;28;20539;-77
2022/07/21 00:05:15;;;;;;;2.38;1.88;;;;;;;19.58;48.78;64025.44;5008731;28;20198;-77
2022/07/21 00:07:42;;;;;;;1.73;1.63;;;;;;;19.59;48.96;64028.56;5021733;28;20222;-76
2022/07/21 00:10:10;;;;;;;1.90;1.80;;;;;;;19.62;49.45;64027.03;5021977;28;20266;-77
2022/07/21 00:12:37;;;;;;;2.38;2.17;;;;;;;19.64;49.82;64033.75;5027279;28;20217;-76
2022/07/21 00:15:07;;;;;;;3.20;1.80;;;;;;;19.63;49.50;64033.22;5023679;28;20269;-76
2022/07/21 00:17:34;;;;;;;2.15;2.00;;;;;;;19.63;49.73;64028.06;5027394;28;20237;-77
2022/07/21 00:20:01;;;;;;;1.90;1.80;;;;;;;19.64;49.78;64029.09;5019920;28;20214;-76
2022/07/21 00:22:28;;;;;;;2.20;2.00;;;;;;;19.67;50.29;64032.25;5016123;28;20217;-75
2022/07/21 00:24:55;;;;;;;2.15;2.05;;;;;;;19.69;49.78;64044.66;5028337;28;20213;-75
2022/07/21 00:27:22;;;;;;;2.03;1.92;;;;;;;19.66;50.23;64033.78;5025324;28;20280;-76
2022/07/21 00:29:49;;;;;;;4.00;2.08;;;;;;;19.69;50.53;64039.47;5013797;28;20277;-77
2022/07/21 00:32:17;;;;;;;5.18;2.65;;;;;;;19.73;50.47;64037.97;5006688;28;20262;-76
2022/07/21 00:34:45;;;;;;;2.85;2.53;;;;;;;19.74;50.75;64041.59;5017749;28;20240;-76
2022/07/21 00:37:12;;;;;;;2.85;2.35;;;;;;;19.74;51.56;64042.13;5023988;28;20245;-76
2022/07/21 00:39:39;;;;;;;2.60;2.50;;;;;;;19.63;51.98;64030.13;5026116;28;20233;-76
2022/07/21 00:42:06;;;;;;;2.72;2.55;;;;;;;19.59;52.91;64023.38;5026063;28;20276;-77
2022/07/21 00:44:33;;;;;;;3.15;2.70;;;;;;;19.49;54.42;64016.56;5023799;28;20194;-76
2022/07/21 00:47:00;;;;;;;3.50;3.25;;;;;;;19.45;54.76;64014.97;5023411;28;20229;-76
2022/07/21 00:49:28;;;;;;;2.97;2.83;;;;;;;19.34;55.06;64000.94;5025962;28;20206;-76
2022/07/21 00:51:55;;;;;;;2.85;2.70;;;;;;;19.37;55.56;64006.66;5025131;28;20368;-77
2022/07/21 00:54:22;;;;;;;2.65;2.55;;;;;;;19.29;55.17;63997.75;5023791;28;20205;-77
2022/07/21 00:56:49;;;;;;;2.58;2.47;;;;;;;19.19;54.51;63987.34;5025542;28;20229;-77
2022/07/21 00:59:16;;;;;;;2.47;2.13;;;;;;;19.13;54.08;63979.00;5025790;28;20190;-78
2022/07/21 01:01:43;;;;;;;2.55;2.35;;;;;;;19.15;53.09;63978.53;5025211;28;20226;-76
2022/07/21 01:04:10;;;;;;;3.38;2.47;;;;;;;19.14;53.11;63974.88;5023081;28;20522;-77
2022/07/21 01:06:38;;;;;;;2.45;2.25;;;;;;;19.11;53.63;63973.81;5025573;28;20198;-76
2022/07/21 01:09:05;;;;;;;2.20;2.10;;;;;;;19.05;54.41;63970.66;5025739;28;20206;-76
2022/07/21 01:11:33;;;;;;;4.57;2.53;;;;;;;19.03;55.08;63968.06;5025777;28;20214;-76
2022/07/21 01:14:00;;;;;;;2.13;1.92;;;;;;;19.02;53.56;63964.97;5024400;28;20202;-77
2022/07/21 01:16:27;;;;;;;2.38;2.25;;;;;;;18.95;54.19;63957.13;5025012;28;20410;-77
2022/07/21 01:18:55;;;;;;;4.22;2.20;;;;;;;18.90;54.58;63957.09;5025480;28;20292;-77
2022/07/21 01:21:32;;;;;;;2.22;2.15;;;;;;;18.81;55.34;63939.97;5022588;28;20241;-76
2022/07/21 01:23:59;;;;;;;1.98;1.88;;;;;;;18.79;55.52;63946.16;5007359;28;20495;-75
2022/07/21 01:26:26;;;;;;;2.08;1.98;;;;;;;18.80;54.98;63946.66;5025149;28;20197;-76
2022/07/21 01:28:53;;;;;;;2.45;2.25;;;;;;;18.66;55.93;63926.91;5025698;28;20198;-76
2022/07/21 01:31:20;;;;;;;2.25;2.15;;;;;;;18.60;56.03;63923.25;5023264;28;20213;-75
2022/07/21 01:33:48;;;;;;;2.30;2.20;;;;;;;18.61;55.40;63921.69;5024312;28;20248;-77
2022/07/21 01:36:14;;;;;;;2.17;2.08;;;;;;;18.51;56.18;63911.28;5024482;28;20229;-76
2022/07/21 01:41:31;;;;;;;2.58;2.35;;;;;;;18.49;55.98;63914.34;5022607;28;20399;-77
2022/07/21 01:44:00;;;;;;;2.03;1.95;;;;;;;18.47;56.10;63917.94;5024120;28;20261;-76
2022/07/21 01:46:28;;;;;;;2.60;2.40;;;;;;;18.53;56.20;63915.94;5025463;28;20198;-76
2022/07/21 01:48:56;;;;;;;2.33;2.22;;;;;;;18.47;56.39;63912.25;5023702;28;20218;-76
2022/07/21 01:51:23;;;;;;;3.10;2.70;;;;;;;18.44;56.56;63909.66;5024626;28;20205;-76
2022/07/21 01:53:52;;;;;;;2.60;2.50;;;;;;;18.47;56.45;63910.22;5023249;28;20483;-78
2022/07/21 01:56:21;;;;;;;2.40;2.30;;;;;;;18.45;56.82;63908.13;5025068;28;20237;-76
2022/07/21 01:58:49;;;;;;;2.65;2.17;;;;;;;18.50;56.44;63910.75;5022776;28;20549;-77
2022/07/21 02:01:17;;;;;;;3.63;2.10;;;;;;;18.47;56.59;63909.69;5023891;28;20245;-78
2022/07/21 02:03:44;;;;;;;2.28;2.17;;;;;;;18.54;56.82;63916.97;5023701;28;20225;-76
2022/07/21 02:06:11;;;;;;;2.15;2.05;;;;;;;18.48;57.42;63906.09;5022141;28;20378;-76
2022/07/21 02:08:38;;;;;;;2.67;2.47;;;;;;;18.41;57.09;63898.81;5022681;28;20230;-77
2022/07/21 02:11:08;;;;;;;2.92;2.65;;;;;;;18.42;57.62;63908.09;5024509;28;20198;-76
2022/07/21 02:13:35;;;;;;;2.25;2.03;;;;;;;18.46;57.31;63911.75;5023737;28;20557;-76
2022/07/21 02:16:02;;;;;;;2.38;2.22;;;;;;;18.44;57.38;63904.50;5022432;28;20205;-78
2022/07/21 02:18:29;;;;;;;2.63;2.25;;;;;;;18.49;57.60;63909.19;5024275;28;20339;-76
2022/07/21 02:20:56;;;;;;;2.30;2.20;;;;;;;18.49;56.10;63909.19;5024242;28;20202;-77
2022/07/21 02:23:24;;;;;;;3.17;2.28;;;;;;;18.51;55.71;63908.69;5024780;28;20225;-76
2022/07/21 02:25:53;;;;;;;2.55;2.45;;;;;;;18.62;56.42;63922.75;5022021;28;20206;-77
2022/07/21 02:28:22;;;;;;;2.47;2.38;;;;;;;18.55;56.67;63918.03;5023857;28;20225;-76
2022/07/21 02:30:50;;;;;;;2.65;2.35;;;;;;;18.53;56.69;63913.38;5022842;28;20210;-76
2022/07/21 02:33:18;;;;;;;2.20;2.10;;;;;;;18.54;56.33;63919.56;5024011;28;20238;-76
2022/07/21 02:35:45;;;;;;;2.50;1.88;;;;;;;18.62;56.34;63923.25;5022733;28;20216;-76
2022/07/21 02:38:13;;;;;;;2.55;2.38;;;;;;;18.63;56.49;63926.38;5024014;28;20233;-77
2022/07/21 02:40:40;;;;;;;2.85;2.17;;;;;;;18.61;57.52;63926.84;5023853;28;20202;-77
2022/07/21 02:43:08;;;;;;;2.15;2.05;;;;;;;18.58;57.53;63923.72;5020723;28;20217;-76
2022/07/21 02:45:36;;;;;;;2.30;2.20;;;;;;;18.57;58.10;63918.03;5024084;28;20202;-76
2022/07/21 02:48:05;;;;;;;2.58;2.47;;;;;;;18.60;60.06;63920.66;5018590;28;20233;-78
2022/07/21 02:50:35;;;;;;;2.35;2.25;;;;;;;18.52;59.39;63915.41;5009302;28;20244;-76
2022/07/21 02:53:05;;;;;;;2.10;2.00;;;;;;;18.44;59.17;63904.50;5021583;28;20233;-77
2022/07/21 02:55:32;;;;;;;2.53;2.42;;;;;;;18.40;58.31;63897.75;5024111;28;20213;-78
2022/07/21 02:58:07;;;;;;;40.15;20.45;;;;;;;18.40;58.44;63903.44;5011589;28;20230;-76
2022/07/21 03:00:36;;;;;;;4.55;4.03;;;;;;;18.39;58.54;63902.38;5017321;28;20210;-76
2022/07/21 03:03:04;;;;;;;2.33;2.22;;;;;;;18.32;58.91;63895.09;5021642;28;20472;-77
2022/07/21 03:05:31;;;;;;;4.40;2.20;;;;;;;18.32;59.87;63894.56;5020149;28;20249;-77
2022/07/21 03:07:58;;;;;;;2.85;2.50;;;;;;;18.29;60.15;63888.88;5021063;28;20280;-76
2022/07/21 03:10:25;;;;;;;2.30;2.20;;;;;;;18.29;59.91;63886.78;5021746;28;20240;-77
2022/07/21 03:12:52;;;;;;;8.35;7.53;;;;;;;18.27;59.95;63886.78;5023777;28;20292;-76
2022/07/21 03:15:19;;;;;;;8.10;6.68;;;;;;;18.26;60.71;63888.81;5018060;28;20253;-76
2022/07/21 03:17:48;;;;;;;2.97;2.88;;;;;;;18.23;60.51;63883.13;5013480;28;20237;-76
2022/07/21 03:20:15;;;;;;;2.70;2.60;;;;;;;18.11;60.96;63877.84;5021834;28;20491;-77
2022/07/21 03:22:42;;;;;;;2.17;2.08;;;;;;;18.10;62.41;63874.22;5024542;28;20226;-76
2022/07/21 03:25:09;;;;;;;2.53;2.40;;;;;;;18.11;61.83;63867.53;5023834;28;20269;-77
2022/07/21 03:27:37;;;;;;;2.25;2.15;;;;;;;18.11;62.58;63873.22;5023159;28;20226;-76
2022/07/21 03:30:06;;;;;;;2.22;2.13;;;;;;;18.15;62.84;63876.84;5021946;28;20202;-77
2022/07/21 03:32:33;;;;;;;6.65;4.45;;;;;;;18.15;63.19;63879.94;5023367;28;20229;-76
2022/07/21 03:35:02;;;;;;;17.98;12.15;;;;;;;18.21;64.07;63880.50;5023347;28;20199;-76
2022/07/21 03:37:29;;;;;;;3.20;2.90;;;;;;;18.17;65.09;63876.88;5021548;28;20238;-77
2022/07/21 03:39:56;;;;;;;2.53;2.42;;;;;;;18.22;64.60;63881.56;5023054;28;20244;-77
2022/07/21 03:42:23;;;;;;;3.35;3.08;;;;;;;18.26;64.39;63888.81;5021154;28;20285;-77
2022/07/21 03:44:50;;;;;;;2.85;2.65;;;;;;;18.30;65.17;63884.75;5023401;28;20217;-78
2022/07/21 03:47:17;;;;;;;6.30;2.70;;;;;;;18.36;64.96;63901.81;5022125;28;20249;-77
2022/07/21 03:49:44;;;;;;;2.60;2.50;;;;;;;18.39;64.05;63901.84;5021981;28;20511;-76
2022/07/21 03:52:12;;;;;;;3.42;3.15;;;;;;;18.47;64.67;63910.22;5022977;28;20465;-78
2022/07/21 03:54:39;;;;;;;2.90;2.67;;;;;;;18.51;65.57;63916.97;5022791;28;20233;-77
2022/07/21 03:57:06;;;;;;;2.58;2.47;;;;;;;18.56;65.00;63921.66;5021321;28;20248;-77
2022/07/21 03:59:33;;;;;;;3.15;2.60;;;;;;;18.63;66.64;63926.38;5022216;28;20530;-78
2022/07/21 04:02:00;;;;;;;2.92;2.72;;;;;;;18.67;67.95;63928.50;5021896;28;21326;-77
2022/07/21 04:04:27;;;;;;;2.90;2.70;;;;;;;18.73;67.45;63934.72;5021390;28;20462;-77
2022/07/21 04:06:54;;;;;;;3.20;2.85;;;;;;;18.81;66.49;63939.97;5022791;28;20269;-76
2022/07/21 04:09:22;;;;;;;5.82;2.80;;;;;;;18.86;66.09;63950.34;5021648;28;20265;-76
2022/07/21 04:11:49;;;;;;;4.28;2.92;;;;;;;18.87;67.16;63951.91;5021486;28;20538;-77
2022/07/21 04:14:15;;;;;;;2.72;2.63;;;;;;;19.03;64.06;63968.06;5021875;28;20205;-77
2022/07/21 04:16:43;;;;;;;3.58;3.00;;;;;;;19.18;63.03;63975.94;5021586;28;20268;-78
2022/07/21 04:19:09;;;;;;;3.25;3.05;;;;;;;19.24;63.80;63990.47;5022601;28;20207;-76
2022/07/21 04:21:36;;;;;;;2.33;2.22;;;;;;;19.32;64.58;63996.25;5021733;28;20499;-76
2022/07/21 04:24:04;;;;;;;2.58;2.47;;;;;;;19.37;64.52;64001.47;5021659;28;20265;-77
2022/07/21 04:26:32;;;;;;;2.88;2.72;;;;;;;19.41;66.75;64008.22;5019580;28;20202;-77
2022/07/21 04:28:59;;;;;;;3.15;2.95;;;;;;;19.49;67.44;64008.81;5022544;28;20385;-77
2022/07/21 04:31:26;;;;;;;2.67;2.55;;;;;;;19.62;66.16;64029.63;5020156;28;20225;-77
2022/07/21 04:33:53;;;;;;;2.88;2.75;;;;;;;19.72;65.96;64037.47;5023448;28;20217;-76
2022/07/21 04:36:20;;;;;;;3.20;3.03;;;;;;;19.83;68.11;64048.91;5020953;28;20229;-76
2022/07/21 04:38:48;;;;;;;2.95;2.75;;;;;;;19.57;66.71;64023.88;5023200;28;20265;-77
2022/07/21 04:41:14;;;;;;;3.33;3.03;;;;;;;19.39;67.32;64000.47;5019937;28;20202;-76
2022/07/21 04:43:43;;;;;;;3.95;3.40;;;;;;;19.37;67.27;63998.91;5022921;28;20225;-76
2022/07/21 04:46:10;;;;;;;5.63;4.00;;;;;;;19.16;65.95;63976.97;5020985;28;20201;-76
2022/07/21 04:48:37;;;;;;;3.85;3.50;;;;;;;19.17;67.03;63980.59;5023066;28;20265;-77
2022/07/21 04:51:04;;;;;;;3.38;3.17;;;;;;;19.36;67.06;64005.09;5020564;28;20208;-77
2022/07/21 04:53:31;;;;;;;4.57;3.70;;;;;;;19.66;66.57;64033.78;5023336;28;20273;-76
2022/07/21 04:55:58;;;;;;;4.97;3.83;;;;;;;19.87;65.94;64053.09;5023500;28;20221;-77
2022/07/21 04:58:25;;;;;;;7.10;4.07;;;;;;;19.98;67.33;64064.06;5024974;28;20305;-77
2022/07/21 05:00:53;;;;;;;4.15;3.92;;;;;;;19.84;65.42;64052.56;5024513;28;20273;-77
2022/07/21 05:03:20;;;;;;;4.78;4.38;;;;;;;19.93;66.24;64056.75;5026051;28;20225;-76
2022/07/21 05:05:47;;;;;;;9.70;4.32;;;;;;;19.59;65.93;64021.31;5024129;28;20197;-76
2022/07/21 05:08:14;;;;;;;4.93;4.38;;;;;;;19.58;66.57;64019.75;5024806;28;20249;-77
2022/07/21 05:10:40;;;;;;;4.55;4.15;;;;;;;19.74;65.56;64039.56;5026012;28;20202;-76
2022/07/21 05:13:07;;;;;;;8.10;4.40;;;;;;;19.85;66.98;64053.06;5025487;28;20249;-77
2022/07/21 05:15:34;;;;;;;6.72;4.53;;;;;;;19.91;66.75;64057.28;5023792;28;20223;-76
2022/07/21 05:18:02;;;;;;;7.68;5.00;;;;;;;20.08;65.27;64079.66;5024327;28;20284;-77
2022/07/21 05:20:29;;;;;;;6.05;4.20;;;;;;;20.26;64.94;64096.41;5024596;28;20225;-77
2022/07/21 05:22:57;;;;;;;7.10;4.15;;;;;;;20.22;64.37;64091.72;5026084;28;20218;-78
2022/07/21 05:25:23;;;;;;;7.47;4.18;;;;;;;20.33;63.62;64103.16;5025460;28;20495;-76
2022/07/21 05:27:50;;;;;;;4.40;4.00;;;;;;;20.45;62.96;64113.09;5024098;28;20265;-76
2022/07/21 05:30:17;;;;;;;5.20;4.20;;;;;;;20.58;62.07;64129.28;5018534;28;20209;-77
2022/07/21 05:32:44;;;;;;;8.15;4.10;;;;;;;20.68;61.52;64142.31;5006601;28;20225;-76
2022/07/21 05:35:12;;;;;;;6.65;4.40;;;;;;;20.72;61.32;64141.31;5008610;28;20226;-76
2022/07/21 05:37:40;;;;;;;5.53;4.28;;;;;;;20.56;61.62;64127.72;5024025;28;20233;-77
2022/07/21 05:40:09;;;;;;;4.43;3.80;;;;;;;20.81;60.91;64153.28;5025416;28;20248;-77
2022/07/21 05:42:36;;;;;;;7.05;4.32;;;;;;;20.74;61.99;64142.88;5025192;28;20221;-76
2022/07/21 05:45:04;;;;;;;6.05;4.32;;;;;;;20.73;60.18;64144.94;5023940;28;20296;-77
2022/07/21 05:47:32;;;;;;;11.77;4.97;;;;;;;20.91;59.91;64165.78;5023722;28;20213;-77
2022/07/21 05:49:59;;;;;;;14.23;5.70;;;;;;;21.04;60.07;64172.13;5024270;28;20293;-77
2022/07/21 05:52:28;;;;;;;8.15;4.57;;;;;;;21.32;59.08;64200.84;5025606;28;20218;-78
2022/07/21 05:54:55;;;;;;;7.65;4.53;;;;;;;21.49;59.10;64221.72;5023792;28;20377;-76
2022/07/21 05:57:21;;;;;;;14.85;4.72;;;;;;;21.36;58.81;64210.75;5024980;28;20264;-78
2022/07/21 05:59:48;;;;;;;8.93;4.50;;;;;;;21.44;59.34;64215.97;5024894;28;20236;-77
2022/07/21 06:02:15;;;;;;;10.55;4.55;;;;;;;21.54;59.61;64223.84;5021229;28;20257;-77
2022/07/21 06:04:42;;;;;;;9.23;5.05;;;;;;;21.76;59.06;64252.53;5025236;28;20252;-77
2022/07/21 06:07:09;;;;;;;7.82;5.10;;;;;;;21.83;58.41;64256.22;5024276;28;20545;-76
2022/07/21 06:09:37;;;;;;;10.50;4.80;;;;;;;21.81;57.58;64259.84;5025277;28;20213;-76
2022/07/21 06:12:05;;;;;;;10.70;4.63;;;;;;;21.90;57.94;64266.13;5023126;28;20222;-76
2022/07/21 06:14:32;;;;;;;12.32;5.07;;;;;;;21.84;57.27;64262.44;5024466;28;20194;-79
2022/07/21 06:16:58;;;;;;;6.55;4.50;;;;;;;21.96;57.17;64275.53;5024976;28;20226;-78
2022/07/21 06:19:25;;;;;;;13.05;4.40;;;;;;;22.15;57.20;64292.78;5024305;28;20534;-77
2022/07/21 06:21:52;;;;;;;13.75;5.50;;;;;;;22.17;56.74;64289.69;5023343;28;20232;-77
2022/07/21 06:24:19;;;;;;;14.88;5.20;;;;;;;22.49;55.70;64332.97;5024461;28;20386;-77
2022/07/21 06:26:47;;;;;;;9.23;5.18;;;;;;;22.60;54.29;64339.84;5024239;28;20285;-77
2022/07/21 06:29:14;;;;;;;10.95;5.30;;;;;;;22.36;55.52;64314.75;5023481;28;20213;-77
2022/07/21 06:31:41;;;;;;;9.55;4.97;;;;;;;22.55;54.61;64334.09;5024481;28;20222;-76
2022/07/21 06:34:08;;;;;;;7.72;4.75;;;;;;;22.64;54.20;64343.50;5019932;28;20202;-76
2022/07/21 06:36:35;;;;;;;7.57;4.80;;;;;;;22.66;54.84;64342.97;5013633;28;20203;-77
2022/07/21 06:39:02;;;;;;;10.60;4.22;;;;;;;22.92;54.05;64370.16;5025921;28;20412;-76
2022/07/21 06:41:29;;;;;;;4.75;4.35;;;;;;;22.95;54.34;64367.59;5015923;28;20190;-77
2022/07/21 06:43:58;;;;;;;7.47;3.83;;;;;;;23.04;52.99;64379.63;5026457;28;20215;-76
2022/07/21 06:46:25;;;;;;;8.00;5.15;;;;;;;23.00;52.97;64383.22;5024660;28;20382;-77
2022/07/21 06:48:52;;;;;;;9.25;4.55;;;;;;;23.07;53.71;64385.34;5024058;28;20236;-77
2022/07/21 06:51:19;;;;;;;5.13;4.25;;;;;;;23.19;54.14;64401.03;5023943;28;20486;-78
2022/07/21 06:53:46;;;;;;;9.93;4.80;;;;;;;23.46;52.89;64429.28;5022989;28;20204;-77
2022/07/21 06:56:13;;;;;;;6.70;4.68;;;;;;;23.65;52.27;64449.16;5022996;28;20206;-77
2022/07/21 06:58:39;;;;;;;8.43;5.25;;;;;;;23.87;50.49;64471.66;5022688;28;20288;-76
2022/07/21 07:01:08;;;;;;;9.10;4.70;;;;;;;24.08;50.46;64488.44;5022018;28;20198;-77
2022/07/21 07:03:35;;;;;;;5.75;4.40;;;;;;;23.99;49.39;64482.16;5023598;28;20218;-77
2022/07/21 07:06:02;;;;;;;11.20;4.40;;;;;;;24.13;49.98;64501.50;5023530;28;20225;-76
2022/07/21 07:08:29;;;;;;;7.35;3.97;;;;;;;23.97;49.94;64480.03;5023505;28;20268;-77
2022/07/21 07:10:56;;;;;;;16.85;4.45;;;;;;;24.13;49.72;64498.88;5023854;28;20198;-76
2022/07/21 07:13:22;;;;;;;7.85;4.15;;;;;;;24.03;47.69;64488.41;5021342;28;20585;-78
2022/07/21 07:15:49;;;;;;;7.35;4.13;;;;;;;24.05;48.17;64490.00;5009891;28;20508;-77
2022/07/21 07:18:20;;;;;;;8.32;3.80;;;;;;;24.13;48.08;64498.34;5026141;28;20412;-77
2022/07/21 07:20:47;;;;;;;6.05;4.35;;;;;;;24.38;48.35;64521.94;5018885;28;20217;-75
2022/07/21 07:23:14;;;;;;;7.55;3.75;;;;;;;24.47;47.35;64531.88;5003868;28;20225;-76
2022/07/21 07:25:41;;;;;;;8.90;4.90;;;;;;;24.63;46.74;64556.44;5021177;28;20240;-76
2022/07/21 07:28:08;;;;;;;10.50;4.22;;;;;;;24.82;46.51;64565.41;5019874;28;20284;-77
2022/07/21 07:30:36;;;;;;;4.10;3.70;;;;;;;24.94;46.71;64586.31;5015970;28;20202;-77
2022/07/21 07:33:03;;;;;;;4.30;3.90;;;;;;;25.18;46.63;64608.31;5023018;28;20226;-75
2022/07/21 07:35:31;;;;;;;4.18;3.70;;;;;;;25.37;46.83;64625.13;5021363;28;20248;-77
2022/07/21 07:37:58;;;;;;;3.85;3.60;;;;;;;25.38;44.44;64623.56;5019971;28;20265;-76
2022/07/21 07:40:25;;;;;;;7.47;3.38;;;;;;;25.38;44.25;64626.72;5021347;28;20202;-76
2022/07/21 07:42:53;;;;;;;5.95;3.42;;;;;;;25.46;44.01;64634.56;5023810;28;20226;-77
2022/07/21 07:45:20;;;;;;;9.88;3.58;;;;;;;25.75;43.18;64670.16;5022422;28;20205;-77
2022/07/21 07:47:47;;;;;;;8.65;3.88;;;;;;;25.85;43.85;64672.81;5016243;28;20222;-76
2022/07/21 07:50:15;;;;;;;8.63;4.15;;;;;;;25.94;43.98;64688.00;5023133;28;20201;-77
2022/07/21 07:52:45;;;;;;;9.18;3.80;;;;;;;26.15;43.66;64712.63;5016813;28;20245;-77
2022/07/21 07:55:13;;;;;;;8.35;3.38;;;;;;;26.18;43.26;64713.16;5023059;28;20205;-76
2022/07/21 07:57:43;;;;;;;6.75;3.65;;;;;;;26.38;42.66;64736.22;5022788;28;20253;-75
2022/07/21 08:00:12;;;;;;;4.88;3.30;;;;;;;26.20;41.96;64719.97;5022685;28;20370;-75
2022/07/21 08:02:40;;;;;;;3.13;2.92;;;;;;;26.35;42.29;64733.09;5022342;28;20229;-78
2022/07/21 08:05:08;;;;;;;2.95;2.42;;;;;;;26.66;41.33;64765.06;5023487;28;20379;-76
2022/07/21 08:07:37;;;;;;;3.13;2.55;;;;;;;26.52;40.84;64747.78;5022857;28;20400;-75
2022/07/21 08:10:06;;;;;;;7.38;2.97;;;;;;;26.68;40.45;64767.19;5016328;28;20203;-76
2022/07/21 08:12:34;;;;;;;10.70;3.38;;;;;;;26.79;40.56;64776.63;5003491;28;20234;-76
2022/07/21 08:15:01;;;;;;;2.80;2.42;;;;;;;26.87;40.75;64785.00;5005415;28;20240;-76
2022/07/21 08:17:29;;;;;;;3.60;3.00;;;;;;;26.83;40.71;64780.84;5023127;28;20226;-76
2022/07/21 08:19:55;;;;;;;2.88;2.67;;;;;;;27.09;39.68;64810.69;5022903;28;20268;-76
2022/07/21 08:22:22;;;;;;;5.03;2.95;;;;;;;27.29;38.34;64831.19;5022967;28;20269;-77
2022/07/21 08:24:49;;;;;;;3.10;2.72;;;;;;;27.41;37.73;64843.25;5021197;28;20221;-76
2022/07/21 08:27:18;;;;;;;10.45;2.60;;;;;;;27.60;38.58;64861.09;5023394;28;20234;-77
2022/07/21 08:29:46;;;;;;;4.00;2.40;;;;;;;27.21;39.03;64814.94;5024381;28;20190;-76
2022/07/21 08:32:13;;;;;;;2.78;2.58;;;;;;;27.42;38.83;64839.06;5027339;28;20218;-76
2022/07/21 08:34:40;;;;;;;4.38;2.70;;;;;;;27.62;38.59;64865.81;5025429;28;20210;-75
2022/07/21 08:37:07;;;;;;;3.28;3.03;;;;;;;27.57;38.74;64860.56;5026276;28;20229;-76
2022/07/21 08:39:34;;;;;;;5.68;2.72;;;;;;;27.27;39.53;64826.44;5027015;28;20229;-76
2022/07/21 08:42:01;;;;;;;2.97;2.78;;;;;;;27.49;39.04;64854.28;5024928;28;20252;-77
2022/07/21 08:44:29;;;;;;;8.98;2.47;;;;;;;27.62;38.21;64863.19;5023289;28;20280;-77
2022/07/21 08:46:58;;;;;;;2.53;2.38;;;;;;;27.63;37.37;64864.25;5025336;28;20264;-75
2022/07/21 08:49:25;;;;;;;2.67;2.47;;;;;;;27.56;37.98;64862.13;5026241;28;20324;-77
2022/07/21 08:51:52;;;;;;;3.13;2.72;;;;;;;27.82;36.92;64886.81;5026488;28;20241;-77
2022/07/21 08:54:21;;;;;;;2.85;2.65;;;;;;;27.99;36.00;64898.91;5026236;28;20202;-76
2022/07/21 08:56:49;;;;;;;5.50;2.50;;;;;;;28.11;35.98;64917.25;5026442;28;20225;-80
2022/07/21 08:59:16;;;;;;;3.80;2.70;;;;;;;28.09;35.48;64917.28;5026102;28;20229;-78
2022/07/21 09:01:45;;;;;;;2.85;2.55;;;;;;;28.05;36.05;64905.72;5025940;28;20428;-76
2022/07/21 09:04:26;;;;;;;4.13;2.78;;;;;;;27.93;37.12;64895.75;5025546;28;20206;-74
2022/07/21 09:06:59;;;;;;;3.17;2.60;;;;;;;28.15;36.54;64918.31;5023306;28;20249;-78
2022/07/21 09:09:27;;;;;;;4.00;2.60;;;;;;;28.28;36.20;64935.13;5015553;28;20499;-75
2022/07/21 09:11:55;;;;;;;2.88;2.70;;;;;;;28.31;36.09;64938.28;5022393;28;20213;-75
2022/07/21 09:14:24;;;;;;;2.80;2.70;;;;;;;28.25;35.72;64929.34;5025812;28;20237;-78
2022/07/21 09:16:53;;;;;;;3.85;2.78;;;;;;;28.54;34.72;64958.78;5025511;28;20214;-78
2022/07/21 09:19:22;;;;;;;6.50;2.70;;;;;;;28.62;34.62;64975.56;5013974;28;20581;-75
2022/07/21 09:21:51;;;;;;;3.38;2.97;;;;;;;28.22;34.68;64928.81;5010492;28;20589;-76
2022/07/21 09:24:21;;;;;;;4.68;2.50;;;;;;;28.16;36.47;64922.00;5025533;28;20202;-77
2022/07/21 09:27:03;;;;;;;2.55;2.45;;;;;;;28.43;35.48;64952.97;5016992;28;20551;-77
2022/07/21 09:29:38;;;;;;;4.20;2.95;;;;;;;28.57;34.59;64961.91;5018879;28;20501;-76
2022/07/21 09:32:26;;;;;;;5.95;2.75;;;;;;;28.65;34.74;64970.31;5026134;28;20217;-76
2022/07/21 09:34:55;;;;;;;4.63;2.60;;;;;;;28.67;34.56;64969.78;5024106;28;20190;-75
2022/07/21 09:37:23;;;;;;;7.55;2.72;;;;;;;28.56;34.67;64960.88;5025952;28;20229;-76
2022/07/21 09:39:52;;;;;;;3.72;3.03;;;;;;;28.74;35.41;64982.38;5025779;28;20268;-75
2022/07/21 09:42:23;;;;;;;2.70;2.50;;;;;;;28.64;34.94;64969.81;5025111;28;20226;-76
2022/07/21 09:44:52;;;;;;;2.53;2.42;;;;;;;28.91;32.63;64995.53;5022612;28;20198;-76
2022/07/21 09:47:22;;;;;;;2.72;2.53;;;;;;;29.06;32.04;65013.91;5011938;28;20233;-78
2022/07/21 09:49:51;;;;;;;2.40;2.30;;;;;;;29.06;32.88;65016.53;5011173;28;20202;-77
2022/07/21 09:52:23;;;;;;;4.07;2.88;;;;;;;29.12;33.58;65022.84;5025727;28;20260;-77
2022/07/21 09:54:50;;;;;;;5.10;2.70;;;;;;;29.27;32.77;65043.31;5025818;28;20205;-77
2022/07/21 09:57:17;;;;;;;2.70;2.50;;;;;;;29.23;33.08;65031.78;5020893;28;20293;-77
2022/07/21 09:59:45;;;;;;;2.65;2.55;;;;;;;29.10;33.35;65017.59;5010412;28;20234;-77
2022/07/21 10:02:20;;;;;;;3.00;2.83;;;;;;;29.18;32.96;65028.63;5014037;28;20234;-76
2022/07/21 10:04:55;;;;;;;3.03;2.88;;;;;;;28.89;32.74;64996.03;5005427;28;20190;-76
2022/07/21 10:07:23;;;;;;;2.72;2.63;;;;;;;28.74;33.13;64982.91;5013802;28;20233;-77
2022/07/21 10:09:50;;;;;;;3.38;3.08;;;;;;;28.86;33.33;64995.00;5024527;28;20225;-78
2022/07/21 10:12:17;;;;;;;4.32;3.10;;;;;;;29.16;33.13;65023.91;5025455;28;20218;-77
2022/07/21 10:14:44;;;;;;;2.85;2.58;;;;;;;29.39;32.21;65050.69;5025478;28;20206;-77
2022/07/21 10:17:11;;;;;;;3.88;2.60;;;;;;;29.54;32.16;65064.34;5024923;28;20218;-78
2022/07/21 10:19:45;;;;;;;3.55;2.97;;;;;;;29.61;31.21;65075.91;5025317;28;20214;-76
2022/07/21 10:22:22;;;;;;;3.83;2.47;;;;;;;29.48;31.24;65057.53;5025513;28;20232;-77
2022/07/21 10:24:50;;;;;;;2.63;2.42;;;;;;;29.42;29.50;65054.38;5024124;28;20206;-75
2022/07/21 10:27:16;;;;;;;2.17;2.08;;;;;;;29.13;30.99;65020.75;5024663;28;20229;-74
2022/07/21 10:29:54;;;;;;;3.72;2.60;;;;;;;29.02;30.96;65009.19;5020015;28;20320;-76
2022/07/21 10:32:24;;;;;;;2.30;2.20;;;;;;;29.15;31.23;65028.09;5011423;28;20491;-76
2022/07/21 10:34:51;;;;;;;2.70;2.60;;;;;;;29.40;32.03;65054.91;5024340;28;20254;-76
2022/07/21 10:37:49;;;;;;;2.47;2.35;;;;;;;29.27;31.95;65036.00;5024619;28;20418;-76
2022/07/21 10:40:36;;;;;;;2.70;2.45;;;;;;;29.28;32.32;65037.06;5026168;28;20217;-77
2022/07/21 10:43:42;;;;;;;3.22;2.83;;;;;;;29.58;30.86;65070.66;5006333;28;20282;-78
2022/07/21 10:46:37;;;;;;;2.90;2.67;;;;;;;29.45;31.19;65060.16;4965192;29;20200;-76
2022/07/21 10:49:09;;;;;;;4.82;2.78;;;;;;;29.19;31.42;65027.06;5005153;28;20419;-76
2022/07/21 10:51:38;;;;;;;2.90;2.60;;;;;;;29.34;31.52;65043.34;5021643;28;20236;-77
2022/07/21 10:54:26;;;;;;;2.47;2.38;;;;;;;29.76;30.95;65086.44;5024844;28;20198;-77
2022/07/21 10:57:29;;;;;;;2.47;2.38;;;;;;;30.00;30.19;65109.56;5023598;28;20281;-77
2022/07/21 11:00:27;;;;;;;2.75;2.33;;;;;;;30.10;30.42;65120.09;5018449;28;20240;-78
2022/07/21 11:02:58;;;;;;;2.65;2.35;;;;;;;30.21;30.67;65136.38;5023927;28;20229;-77
2022/07/21 11:05:27;;;;;;;2.67;2.47;;;;;;;30.19;30.61;65132.19;5023483;28;20244;-77
2022/07/21 11:08:11;;;;;;;2.58;2.38;;;;;;;30.19;29.82;65132.19;5022388;28;20222;-78
2022/07/21 11:10:42;;;;;;;2.70;2.50;;;;;;;30.34;30.20;65147.44;5018527;28;20241;-79
2022/07/21 11:13:09;;;;;;;2.17;2.08;;;;;;;30.27;30.32;65140.59;5018623;28;20475;-75
2022/07/21 11:15:57;;;;;;;2.88;2.67;;;;;;;30.02;29.42;65114.31;5022664;28;20536;-78
2022/07/21 11:18:26;;;;;;;2.70;2.20;;;;;;;30.07;29.49;65121.66;5004384;28;20230;-77
2022/07/21 11:21:12;;;;;;;2.20;2.10;;;;;;;30.25;28.93;65141.13;5003974;28;20215;-77
2022/07/21 11:23:42;;;;;;;2.45;2.35;;;;;;;30.05;29.97;65122.19;5026060;28;20225;-77
2022/07/21 11:26:13;;;;;;;3.15;2.30;;;;;;;29.94;29.92;65105.88;5023856;28;20502;-77
2022/07/21 11:28:40;;;;;;;4.88;2.38;;;;;;;30.22;29.83;65140.06;5021932;28;20244;-77
2022/07/21 11:31:09;;;;;;;2.95;2.70;;;;;;;30.44;29.68;65160.59;5018446;28;20632;-77
2022/07/21 11:33:37;;;;;;;3.65;2.50;;;;;;;30.30;29.98;65146.41;5020544;28;20224;-76
2022/07/21 11:36:04;;;;;;;3.00;2.80;;;;;;;30.13;29.35;65125.34;5022107;28;20220;-76
2022/07/21 11:38:32;;;;;;;2.35;2.25;;;;;;;30.19;29.02;65131.66;5022129;28;20441;-76
2022/07/21 11:43:52;;;;;;;4.22;2.70;;;;;;;30.34;28.97;65150.06;5085275;27;20830;-76